sensor_id;sensor_type;location;lat;lon;timestamp;P1;durP1;ratioP1;P2;durP2;ratioP2
10529;SDS011;5313;48.834;9.228;2022-12-17T00:01:17;25.48;;;15.05;;
10529;SDS011;5313;48.834;9.228;2022-12-17T00:04:01;27.23;;;14.60;;
10529;SDS011;5313;48.834;9.228;2022-12-17T00:06:46;31.45;;;15.98;;
10529;SDS011;5313;48.834;9.228;2022-12-17T00:09:30;26.23;;;14.07;;
10529;SDS011;5313;48.834;9.228;2022-12-17T00:12:14;24.52;;;14.10;;
10529;SDS011;5313;48.834;9.228;2022-12-17T00:14:58;29.55;;;15.35;;
10529;SDS011;5313;48.834;9.228;2022-12-17T00:17:42;26.15;;;14.77;;
10529;SDS011;5313;48.834;9.228;2022-12-17T00:20:26;30.20;;;14.68;;
10529;SDS011;5313;48.834;9.228;2022-12-17T00:23:11;26.98;;;15.50;;
10529;SDS011;5313;48.834;9.228;2022-12-17T00:25:55;28.67;;;14.75;;
10529;SDS011;5313;48.834;9.228;2022-12-17T00:28:40;29.73;;;14.60;;
10529;SDS011;5313;48.834;9.228;2022-12-17T00:31:25;27.50;;;15.25;;
10529;SDS011;5313;48.834;9.228;2022-12-17T00:34:10;26.52;;;15.73;;
10529;SDS011;5313;48.834;9.228;2022-12-17T00:36:54;28.17;;;15.55;;
10529;SDS011;5313;48.834;9.228;2022-12-17T00:39:38;24.83;;;14.15;;
10529;SDS011;5313;48.834;9.228;2022-12-17T00:42:22;29.15;;;13.70;;
10529;SDS011;5313;48.834;9.228;2022-12-17T00:45:06;25.75;;;13.88;;
10529;SDS011;5313;48.834;9.228;2022-12-17T00:47:50;27.92;;;14.13;;
10529;SDS011;5313;48.834;9.228;2022-12-17T00:50:34;26.50;;;13.95;;
10529;SDS011;5313;48.834;9.228;2022-12-17T00:53:18;25.65;;;14.10;;
10529;SDS011;5313;48.834;9.228;2022-12-17T00:56:02;27.88;;;15.38;;
10529;SDS011;5313;48.834;9.228;2022-12-17T00:58:46;24.58;;;13.45;;
10529;SDS011;5313;48.834;9.228;2022-12-17T01:01:30;24.40;;;14.30;;
10529;SDS011;5313;48.834;9.228;2022-12-17T01:04:14;25.42;;;14.02;;
10529;SDS011;5313;48.834;9.228;2022-12-17T01:06:58;26.33;;;15.15;;
10529;SDS011;5313;48.834;9.228;2022-12-17T01:09:42;29.83;;;15.38;;
10529;SDS011;5313;48.834;9.228;2022-12-17T01:12:26;31.27;;;15.15;;
10529;SDS011;5313;48.834;9.228;2022-12-17T01:15:10;32.88;;;16.17;;
10529;SDS011;5313;48.834;9.228;2022-12-17T01:17:54;27.45;;;14.38;;
10529;SDS011;5313;48.834;9.228;2022-12-17T01:20:38;26.90;;;14.63;;
10529;SDS011;5313;48.834;9.228;2022-12-17T01:23:22;24.98;;;13.75;;
10529;SDS011;5313;48.834;9.228;2022-12-17T01:26:06;24.05;;;13.80;;
10529;SDS011;5313;48.834;9.228;2022-12-17T01:28:50;28.15;;;14.48;;
10529;SDS011;5313;48.834;9.228;2022-12-17T01:31:34;26.75;;;14.75;;
10529;SDS011;5313;48.834;9.228;2022-12-17T01:34:18;28.73;;;14.80;;
10529;SDS011;5313;48.834;9.228;2022-12-17T01:37:03;29.00;;;14.65;;
10529;SDS011;5313;48.834;9.228;2022-12-17T01:39:47;29.15;;;14.65;;
10529;SDS011;5313;48.834;9.228;2022-12-17T01:42:38;32.40;;;15.32;;
10529;SDS011;5313;48.834;9.228;2022-12-17T01:45:27;33.92;;;14.85;;
10529;SDS011;5313;48.834;9.228;2022-12-17T01:48:41;27.75;;;14.10;;
10529;SDS011;5313;48.834;9.228;2022-12-17T01:51:29;28.60;;;14.40;;
10529;SDS011;5313;48.834;9.228;2022-12-17T01:54:14;23.88;;;14.18;;
10529;SDS011;5313;48.834;9.228;2022-12-17T01:56:59;25.52;;;13.90;;
10529;SDS011;5313;48.834;9.228;2022-12-17T01:59:46;29.70;;;14.85;;
10529;SDS011;5313;48.834;9.228;2022-12-17T02:02:41;29.08;;;14.82;;
10529;SDS011;5313;48.834;9.228;2022-12-17T02:05:33;31.15;;;15.82;;
10529;SDS011;5313;48.834;9.228;2022-12-17T02:08:32;29.30;;;15.73;;
10529;SDS011;5313;48.834;9.228;2022-12-17T02:11:34;26.77;;;15.38;;
10529;SDS011;5313;48.834;9.228;2022-12-17T02:17:43;34.75;;;15.23;;
10529;SDS011;5313;48.834;9.228;2022-12-17T02:20:33;26.90;;;15.18;;
10529;SDS011;5313;48.834;9.228;2022-12-17T02:29:23;30.70;;;16.42;;
10529;SDS011;5313;48.834;9.228;2022-12-17T02:32:10;31.90;;;15.85;;
10529;SDS011;5313;48.834;9.228;2022-12-17T02:34:55;29.92;;;15.45;;
10529;SDS011;5313;48.834;9.228;2022-12-17T02:37:49;33.33;;;16.98;;
10529;SDS011;5313;48.834;9.228;2022-12-17T02:40:36;34.72;;;16.10;;
10529;SDS011;5313;48.834;9.228;2022-12-17T02:43:22;36.20;;;17.52;;
10529;SDS011;5313;48.834;9.228;2022-12-17T02:46:07;35.75;;;16.80;;
10529;SDS011;5313;48.834;9.228;2022-12-17T02:48:52;34.70;;;17.23;;
10529;SDS011;5313;48.834;9.228;2022-12-17T02:51:36;28.30;;;14.60;;
10529;SDS011;5313;48.834;9.228;2022-12-17T02:54:20;33.42;;;16.08;;
10529;SDS011;5313;48.834;9.228;2022-12-17T02:57:04;30.70;;;15.00;;
10529;SDS011;5313;48.834;9.228;2022-12-17T02:59:49;34.58;;;15.02;;
10529;SDS011;5313;48.834;9.228;2022-12-17T03:02:32;32.17;;;14.95;;
10529;SDS011;5313;48.834;9.228;2022-12-17T03:05:16;32.83;;;14.95;;
10529;SDS011;5313;48.834;9.228;2022-12-17T03:08:00;30.95;;;14.80;;
10529;SDS011;5313;48.834;9.228;2022-12-17T03:10:44;31.90;;;15.48;;
10529;SDS011;5313;48.834;9.228;2022-12-17T03:13:28;27.30;;;14.45;;
10529;SDS011;5313;48.834;9.228;2022-12-17T03:16:13;26.67;;;13.45;;
10529;SDS011;5313;48.834;9.228;2022-12-17T03:18:58;32.85;;;15.45;;
10529;SDS011;5313;48.834;9.228;2022-12-17T03:21:42;33.00;;;15.55;;
10529;SDS011;5313;48.834;9.228;2022-12-17T03:24:26;29.30;;;14.10;;
10529;SDS011;5313;48.834;9.228;2022-12-17T03:27:11;27.20;;;14.35;;
10529;SDS011;5313;48.834;9.228;2022-12-17T03:29:55;34.78;;;15.98;;
10529;SDS011;5313;48.834;9.228;2022-12-17T03:32:39;27.98;;;14.52;;
10529;SDS011;5313;48.834;9.228;2022-12-17T03:35:23;30.08;;;15.80;;
10529;SDS011;5313;48.834;9.228;2022-12-17T03:38:07;40.83;;;17.27;;
10529;SDS011;5313;48.834;9.228;2022-12-17T03:40:52;43.08;;;17.40;;
10529;SDS011;5313;48.834;9.228;2022-12-17T03:43:37;30.00;;;15.40;;
10529;SDS011;5313;48.834;9.228;2022-12-17T03:46:21;35.97;;;15.25;;
10529;SDS011;5313;48.834;9.228;2022-12-17T03:49:05;33.35;;;16.45;;
10529;SDS011;5313;48.834;9.228;2022-12-17T03:51:49;33.95;;;15.25;;
10529;SDS011;5313;48.834;9.228;2022-12-17T03:54:33;30.40;;;15.93;;
10529;SDS011;5313;48.834;9.228;2022-12-17T03:57:18;31.67;;;14.32;;
10529;SDS011;5313;48.834;9.228;2022-12-17T04:00:02;30.92;;;15.10;;
10529;SDS011;5313;48.834;9.228;2022-12-17T04:02:47;29.33;;;15.27;;
10529;SDS011;5313;48.834;9.228;2022-12-17T04:05:31;30.13;;;15.80;;
10529;SDS011;5313;48.834;9.228;2022-12-17T04:08:15;31.73;;;15.15;;
10529;SDS011;5313;48.834;9.228;2022-12-17T04:11:00;27.50;;;13.55;;
10529;SDS011;5313;48.834;9.228;2022-12-17T04:13:44;30.40;;;15.20;;
10529;SDS011;5313;48.834;9.228;2022-12-17T04:16:28;29.38;;;15.07;;
10529;SDS011;5313;48.834;9.228;2022-12-17T04:19:12;32.78;;;15.00;;
10529;SDS011;5313;48.834;9.228;2022-12-17T04:21:56;32.25;;;14.85;;
10529;SDS011;5313;48.834;9.228;2022-12-17T04:24:40;28.92;;;14.55;;
10529;SDS011;5313;48.834;9.228;2022-12-17T04:27:24;29.70;;;14.45;;
10529;SDS011;5313;48.834;9.228;2022-12-17T04:30:08;28.50;;;14.60;;
10529;SDS011;5313;48.834;9.228;2022-12-17T04:32:53;27.90;;;14.75;;
10529;SDS011;5313;48.834;9.228;2022-12-17T04:35:37;29.13;;;14.43;;
10529;SDS011;5313;48.834;9.228;2022-12-17T04:38:21;29.38;;;14.38;;
10529;SDS011;5313;48.834;9.228;2022-12-17T04:41:05;32.92;;;15.40;;
10529;SDS011;5313;48.834;9.228;2022-12-17T04:43:49;35.10;;;15.40;;
10529;SDS011;5313;48.834;9.228;2022-12-17T04:46:33;31.02;;;15.40;;
10529;SDS011;5313;48.834;9.228;2022-12-17T04:49:17;30.55;;;14.73;;
10529;SDS011;5313;48.834;9.228;2022-12-17T04:52:01;33.90;;;15.80;;
10529;SDS011;5313;48.834;9.228;2022-12-17T04:54:46;40.10;;;15.60;;
10529;SDS011;5313;48.834;9.228;2022-12-17T04:57:30;37.22;;;17.10;;
10529;SDS011;5313;48.834;9.228;2022-12-17T05:00:14;31.50;;;15.40;;
10529;SDS011;5313;48.834;9.228;2022-12-17T05:03:05;33.95;;;16.10;;
10529;SDS011;5313;48.834;9.228;2022-12-17T05:05:52;31.83;;;15.18;;
10529;SDS011;5313;48.834;9.228;2022-12-17T05:08:36;36.50;;;16.10;;
10529;SDS011;5313;48.834;9.228;2022-12-17T05:11:20;34.40;;;16.50;;
10529;SDS011;5313;48.834;9.228;2022-12-17T05:14:05;32.88;;;16.48;;
10529;SDS011;5313;48.834;9.228;2022-12-17T05:16:49;34.65;;;18.00;;
10529;SDS011;5313;48.834;9.228;2022-12-17T05:19:33;41.60;;;18.80;;
10529;SDS011;5313;48.834;9.228;2022-12-17T05:22:17;39.92;;;18.48;;
10529;SDS011;5313;48.834;9.228;2022-12-17T05:25:01;41.25;;;18.10;;
10529;SDS011;5313;48.834;9.228;2022-12-17T05:27:45;41.80;;;17.70;;
10529;SDS011;5313;48.834;9.228;2022-12-17T05:30:30;44.55;;;18.25;;
10529;SDS011;5313;48.834;9.228;2022-12-17T05:33:14;44.05;;;19.30;;
10529;SDS011;5313;48.834;9.228;2022-12-17T05:36:01;41.13;;;18.95;;
10529;SDS011;5313;48.834;9.228;2022-12-17T05:38:47;43.63;;;19.17;;
10529;SDS011;5313;48.834;9.228;2022-12-17T05:41:31;41.05;;;20.10;;
10529;SDS011;5313;48.834;9.228;2022-12-17T05:44:15;44.90;;;20.27;;
10529;SDS011;5313;48.834;9.228;2022-12-17T05:47:00;47.53;;;20.23;;
10529;SDS011;5313;48.834;9.228;2022-12-17T05:49:44;42.58;;;19.73;;
10529;SDS011;5313;48.834;9.228;2022-12-17T05:52:28;46.70;;;20.70;;
10529;SDS011;5313;48.834;9.228;2022-12-17T05:55:12;45.88;;;20.27;;
10529;SDS011;5313;48.834;9.228;2022-12-17T05:58:00;42.25;;;19.65;;
10529;SDS011;5313;48.834;9.228;2022-12-17T06:00:48;43.67;;;19.83;;
10529;SDS011;5313;48.834;9.228;2022-12-17T06:03:33;52.75;;;21.42;;
10529;SDS011;5313;48.834;9.228;2022-12-17T06:06:17;44.47;;;20.50;;
10529;SDS011;5313;48.834;9.228;2022-12-17T06:09:01;43.65;;;20.08;;
10529;SDS011;5313;48.834;9.228;2022-12-17T06:11:46;42.70;;;20.30;;
10529;SDS011;5313;48.834;9.228;2022-12-17T06:14:32;43.33;;;21.35;;
10529;SDS011;5313;48.834;9.228;2022-12-17T06:17:16;50.92;;;21.83;;
10529;SDS011;5313;48.834;9.228;2022-12-17T06:20:00;42.90;;;20.85;;
10529;SDS011;5313;48.834;9.228;2022-12-17T06:22:44;48.90;;;21.30;;
10529;SDS011;5313;48.834;9.228;2022-12-17T06:25:28;49.47;;;22.27;;
10529;SDS011;5313;48.834;9.228;2022-12-17T06:28:12;44.10;;;21.83;;
10529;SDS011;5313;48.834;9.228;2022-12-17T06:30:56;47.65;;;21.13;;
10529;SDS011;5313;48.834;9.228;2022-12-17T06:33:40;44.15;;;22.65;;
10529;SDS011;5313;48.834;9.228;2022-12-17T06:36:24;49.45;;;22.13;;
10529;SDS011;5313;48.834;9.228;2022-12-17T06:39:08;45.92;;;22.05;;
10529;SDS011;5313;48.834;9.228;2022-12-17T06:41:52;41.65;;;21.30;;
10529;SDS011;5313;48.834;9.228;2022-12-17T06:44:37;51.67;;;22.55;;
10529;SDS011;5313;48.834;9.228;2022-12-17T06:47:21;48.38;;;22.90;;
10529;SDS011;5313;48.834;9.228;2022-12-17T06:50:05;45.00;;;21.33;;
10529;SDS011;5313;48.834;9.228;2022-12-17T06:53:23;47.55;;;21.73;;
10529;SDS011;5313;48.834;9.228;2022-12-17T06:56:00;49.33;;;22.83;;
10529;SDS011;5313;48.834;9.228;2022-12-17T06:58:44;47.95;;;23.30;;
10529;SDS011;5313;48.834;9.228;2022-12-17T07:01:28;46.88;;;23.05;;
10529;SDS011;5313;48.834;9.228;2022-12-17T07:04:12;50.35;;;23.17;;
10529;SDS011;5313;48.834;9.228;2022-12-17T07:06:57;51.05;;;22.65;;
10529;SDS011;5313;48.834;9.228;2022-12-17T07:09:41;44.17;;;22.20;;
10529;SDS011;5313;48.834;9.228;2022-12-17T07:12:25;50.08;;;21.90;;
10529;SDS011;5313;48.834;9.228;2022-12-17T07:15:09;47.97;;;21.55;;
10529;SDS011;5313;48.834;9.228;2022-12-17T07:17:55;49.85;;;21.83;;
10529;SDS011;5313;48.834;9.228;2022-12-17T07:20:40;54.33;;;21.80;;
10529;SDS011;5313;48.834;9.228;2022-12-17T07:23:25;46.97;;;22.25;;
10529;SDS011;5313;48.834;9.228;2022-12-17T07:26:09;42.47;;;21.27;;
10529;SDS011;5313;48.834;9.228;2022-12-17T07:28:53;42.83;;;20.80;;
10529;SDS011;5313;48.834;9.228;2022-12-17T07:31:37;43.65;;;22.30;;
10529;SDS011;5313;48.834;9.228;2022-12-17T07:34:21;47.20;;;21.45;;
10529;SDS011;5313;48.834;9.228;2022-12-17T07:37:05;45.83;;;21.77;;
10529;SDS011;5313;48.834;9.228;2022-12-17T07:39:49;43.55;;;20.20;;
10529;SDS011;5313;48.834;9.228;2022-12-17T07:42:33;46.45;;;21.40;;
10529;SDS011;5313;48.834;9.228;2022-12-17T07:45:17;44.55;;;21.10;;
10529;SDS011;5313;48.834;9.228;2022-12-17T07:48:02;42.08;;;19.00;;
10529;SDS011;5313;48.834;9.228;2022-12-17T07:50:49;48.85;;;21.60;;
10529;SDS011;5313;48.834;9.228;2022-12-17T07:53:34;41.67;;;20.42;;
10529;SDS011;5313;48.834;9.228;2022-12-17T07:56:18;47.28;;;21.85;;
10529;SDS011;5313;48.834;9.228;2022-12-17T07:59:02;46.85;;;20.38;;
10529;SDS011;5313;48.834;9.228;2022-12-17T08:01:47;39.03;;;19.45;;
10529;SDS011;5313;48.834;9.228;2022-12-17T08:04:31;38.45;;;17.35;;
10529;SDS011;5313;48.834;9.228;2022-12-17T08:07:15;43.75;;;19.77;;
10529;SDS011;5313;48.834;9.228;2022-12-17T08:09:59;43.85;;;19.15;;
10529;SDS011;5313;48.834;9.228;2022-12-17T08:12:56;44.22;;;21.08;;
10529;SDS011;5313;48.834;9.228;2022-12-17T08:15:41;38.08;;;17.42;;
10529;SDS011;5313;48.834;9.228;2022-12-17T08:18:25;45.60;;;19.20;;
10529;SDS011;5313;48.834;9.228;2022-12-17T08:21:10;48.38;;;20.08;;
10529;SDS011;5313;48.834;9.228;2022-12-17T08:23:54;43.63;;;18.13;;
10529;SDS011;5313;48.834;9.228;2022-12-17T08:26:38;40.78;;;18.95;;
10529;SDS011;5313;48.834;9.228;2022-12-17T08:29:22;44.08;;;19.48;;
10529;SDS011;5313;48.834;9.228;2022-12-17T08:32:06;45.53;;;19.25;;
10529;SDS011;5313;48.834;9.228;2022-12-17T08:34:50;43.45;;;17.42;;
10529;SDS011;5313;48.834;9.228;2022-12-17T08:37:35;39.08;;;18.45;;
10529;SDS011;5313;48.834;9.228;2022-12-17T08:40:18;43.63;;;20.55;;
10529;SDS011;5313;48.834;9.228;2022-12-17T08:43:03;39.22;;;18.27;;
10529;SDS011;5313;48.834;9.228;2022-12-17T08:45:48;42.28;;;18.98;;
10529;SDS011;5313;48.834;9.228;2022-12-17T08:48:33;40.45;;;18.77;;
10529;SDS011;5313;48.834;9.228;2022-12-17T08:51:18;46.20;;;20.63;;
10529;SDS011;5313;48.834;9.228;2022-12-17T08:54:02;43.97;;;20.10;;
10529;SDS011;5313;48.834;9.228;2022-12-17T08:56:46;39.10;;;17.77;;
10529;SDS011;5313;48.834;9.228;2022-12-17T08:59:30;38.00;;;16.58;;
10529;SDS011;5313;48.834;9.228;2022-12-17T09:02:14;34.17;;;16.52;;
10529;SDS011;5313;48.834;9.228;2022-12-17T09:04:58;41.45;;;17.38;;
10529;SDS011;5313;48.834;9.228;2022-12-17T09:07:42;40.25;;;17.38;;
10529;SDS011;5313;48.834;9.228;2022-12-17T09:10:26;38.00;;;16.40;;
10529;SDS011;5313;48.834;9.228;2022-12-17T09:13:10;40.50;;;18.60;;
10529;SDS011;5313;48.834;9.228;2022-12-17T09:15:55;40.30;;;17.85;;
10529;SDS011;5313;48.834;9.228;2022-12-17T09:18:40;39.78;;;18.83;;
10529;SDS011;5313;48.834;9.228;2022-12-17T09:21:26;37.78;;;17.15;;
10529;SDS011;5313;48.834;9.228;2022-12-17T09:24:11;35.78;;;17.80;;
10529;SDS011;5313;48.834;9.228;2022-12-17T09:26:55;33.72;;;15.77;;
10529;SDS011;5313;48.834;9.228;2022-12-17T09:29:39;48.65;;;17.90;;
10529;SDS011;5313;48.834;9.228;2022-12-17T09:32:23;43.47;;;19.58;;
10529;SDS011;5313;48.834;9.228;2022-12-17T09:35:07;47.50;;;20.80;;
10529;SDS011;5313;48.834;9.228;2022-12-17T09:37:52;36.83;;;18.38;;
10529;SDS011;5313;48.834;9.228;2022-12-17T09:40:39;45.22;;;19.35;;
10529;SDS011;5313;48.834;9.228;2022-12-17T09:43:43;39.97;;;19.25;;
10529;SDS011;5313;48.834;9.228;2022-12-17T09:47:18;39.67;;;19.38;;
10529;SDS011;5313;48.834;9.228;2022-12-17T09:49:49;48.17;;;20.35;;
10529;SDS011;5313;48.834;9.228;2022-12-17T09:52:35;41.65;;;19.00;;
10529;SDS011;5313;48.834;9.228;2022-12-17T09:55:29;41.17;;;20.98;;
10529;SDS011;5313;48.834;9.228;2022-12-17T09:58:21;43.85;;;20.05;;
10529;SDS011;5313;48.834;9.228;2022-12-17T10:01:17;41.47;;;20.02;;
10529;SDS011;5313;48.834;9.228;2022-12-17T10:04:03;44.22;;;19.95;;
10529;SDS011;5313;48.834;9.228;2022-12-17T10:06:55;44.08;;;18.83;;
10529;SDS011;5313;48.834;9.228;2022-12-17T10:09:40;41.92;;;18.85;;
10529;SDS011;5313;48.834;9.228;2022-12-17T10:12:24;38.70;;;18.33;;
10529;SDS011;5313;48.834;9.228;2022-12-17T10:15:14;40.80;;;18.42;;
10529;SDS011;5313;48.834;9.228;2022-12-17T10:18:03;43.38;;;19.48;;
10529;SDS011;5313;48.834;9.228;2022-12-17T10:20:51;44.53;;;18.52;;
10529;SDS011;5313;48.834;9.228;2022-12-17T10:23:41;42.00;;;19.63;;
10529;SDS011;5313;48.834;9.228;2022-12-17T10:26:26;36.58;;;17.85;;
10529;SDS011;5313;48.834;9.228;2022-12-17T10:29:16;39.25;;;18.70;;
10529;SDS011;5313;48.834;9.228;2022-12-17T10:34:59;37.33;;;18.92;;
10529;SDS011;5313;48.834;9.228;2022-12-17T10:37:50;35.30;;;17.95;;
10529;SDS011;5313;48.834;9.228;2022-12-17T10:40:34;38.42;;;18.67;;
10529;SDS011;5313;48.834;9.228;2022-12-17T10:43:29;34.47;;;15.98;;
10529;SDS011;5313;48.834;9.228;2022-12-17T10:46:25;33.88;;;17.73;;
10529;SDS011;5313;48.834;9.228;2022-12-17T10:49:11;41.30;;;19.55;;
10529;SDS011;5313;48.834;9.228;2022-12-17T10:51:58;37.63;;;18.05;;
10529;SDS011;5313;48.834;9.228;2022-12-17T10:55:24;38.35;;;18.85;;
10529;SDS011;5313;48.834;9.228;2022-12-17T10:58:12;40.67;;;19.60;;
10529;SDS011;5313;48.834;9.228;2022-12-17T11:01:10;45.38;;;20.45;;
10529;SDS011;5313;48.834;9.228;2022-12-17T11:04:01;40.13;;;20.05;;
10529;SDS011;5313;48.834;9.228;2022-12-17T11:07:05;34.95;;;16.45;;
10529;SDS011;5313;48.834;9.228;2022-12-17T11:09:52;39.92;;;19.83;;
10529;SDS011;5313;48.834;9.228;2022-12-17T11:12:41;44.67;;;20.88;;
10529;SDS011;5313;48.834;9.228;2022-12-17T11:15:35;45.90;;;20.25;;
10529;SDS011;5313;48.834;9.228;2022-12-17T11:18:25;37.45;;;18.58;;
10529;SDS011;5313;48.834;9.228;2022-12-17T11:21:23;38.15;;;18.58;;
10529;SDS011;5313;48.834;9.228;2022-12-17T11:24:12;37.70;;;19.50;;
10529;SDS011;5313;48.834;9.228;2022-12-17T11:27:03;41.15;;;20.63;;
10529;SDS011;5313;48.834;9.228;2022-12-17T11:29:52;40.53;;;20.05;;
10529;SDS011;5313;48.834;9.228;2022-12-17T11:36:21;35.13;;;17.75;;
10529;SDS011;5313;48.834;9.228;2022-12-17T11:48:00;49.60;;;22.20;;
10529;SDS011;5313;48.834;9.228;2022-12-17T11:51:08;45.42;;;22.23;;
10529;SDS011;5313;48.834;9.228;2022-12-17T11:54:04;43.25;;;21.10;;
10529;SDS011;5313;48.834;9.228;2022-12-17T12:06:02;42.65;;;21.30;;
10529;SDS011;5313;48.834;9.228;2022-12-17T12:09:14;46.42;;;21.52;;
10529;SDS011;5313;48.834;9.228;2022-12-17T12:24:55;49.17;;;21.83;;
10529;SDS011;5313;48.834;9.228;2022-12-17T12:28:02;49.00;;;21.85;;
10529;SDS011;5313;48.834;9.228;2022-12-17T12:33:56;45.85;;;22.77;;
10529;SDS011;5313;48.834;9.228;2022-12-17T12:36:44;50.25;;;22.05;;
10529;SDS011;5313;48.834;9.228;2022-12-17T12:39:33;40.25;;;21.23;;
10529;SDS011;5313;48.834;9.228;2022-12-17T12:46:04;49.30;;;22.98;;
10529;SDS011;5313;48.834;9.228;2022-12-17T12:48:56;45.03;;;21.17;;
10529;SDS011;5313;48.834;9.228;2022-12-17T12:51:48;41.17;;;21.63;;
10529;SDS011;5313;48.834;9.228;2022-12-17T12:57:29;45.40;;;22.08;;
10529;SDS011;5313;48.834;9.228;2022-12-17T13:06:12;45.92;;;22.50;;
10529;SDS011;5313;48.834;9.228;2022-12-17T13:09:15;46.38;;;23.63;;
10529;SDS011;5313;48.834;9.228;2022-12-17T13:11:45;45.50;;;21.92;;
10529;SDS011;5313;48.834;9.228;2022-12-17T13:14:32;42.40;;;21.80;;
10529;SDS011;5313;48.834;9.228;2022-12-17T13:17:20;46.67;;;23.48;;
10529;SDS011;5313;48.834;9.228;2022-12-17T13:23:38;40.08;;;23.13;;
10529;SDS011;5313;48.834;9.228;2022-12-17T13:26:13;41.03;;;21.02;;
10529;SDS011;5313;48.834;9.228;2022-12-17T13:28:41;42.07;;;20.90;;
10529;SDS011;5313;48.834;9.228;2022-12-17T13:31:14;41.57;;;21.43;;
10529;SDS011;5313;48.834;9.228;2022-12-17T13:33:58;44.00;;;21.70;;
10529;SDS011;5313;48.834;9.228;2022-12-17T13:36:39;42.10;;;22.50;;
10529;SDS011;5313;48.834;9.228;2022-12-17T13:42:26;42.90;;;22.33;;
10529;SDS011;5313;48.834;9.228;2022-12-17T13:44:54;39.30;;;20.95;;
10529;SDS011;5313;48.834;9.228;2022-12-17T13:47:30;47.55;;;22.95;;
10529;SDS011;5313;48.834;9.228;2022-12-17T13:49:59;43.70;;;23.02;;
10529;SDS011;5313;48.834;9.228;2022-12-17T13:52:28;45.40;;;23.02;;
10529;SDS011;5313;48.834;9.228;2022-12-17T13:55:06;40.80;;;22.15;;
10529;SDS011;5313;48.834;9.228;2022-12-17T13:57:35;49.67;;;23.77;;
10529;SDS011;5313;48.834;9.228;2022-12-17T14:00:02;44.47;;;23.13;;
10529;SDS011;5313;48.834;9.228;2022-12-17T14:02:29;46.60;;;23.42;;
10529;SDS011;5313;48.834;9.228;2022-12-17T14:04:57;46.20;;;22.58;;
10529;SDS011;5313;48.834;9.228;2022-12-17T14:07:28;48.28;;;24.50;;
10529;SDS011;5313;48.834;9.228;2022-12-17T14:09:54;46.47;;;23.95;;
10529;SDS011;5313;48.834;9.228;2022-12-17T14:12:23;47.38;;;23.80;;
10529;SDS011;5313;48.834;9.228;2022-12-17T14:14:52;51.22;;;25.73;;
10529;SDS011;5313;48.834;9.228;2022-12-17T14:17:28;46.28;;;23.10;;
10529;SDS011;5313;48.834;9.228;2022-12-17T14:20:18;47.42;;;24.30;;
10529;SDS011;5313;48.834;9.228;2022-12-17T14:23:22;47.47;;;23.50;;
10529;SDS011;5313;48.834;9.228;2022-12-17T14:25:45;46.42;;;22.90;;
10529;SDS011;5313;48.834;9.228;2022-12-17T14:31:05;46.50;;;24.35;;
10529;SDS011;5313;48.834;9.228;2022-12-17T14:33:40;45.22;;;21.98;;
10529;SDS011;5313;48.834;9.228;2022-12-17T14:36:08;51.72;;;25.75;;
10529;SDS011;5313;48.834;9.228;2022-12-17T14:38:39;50.15;;;23.52;;
10529;SDS011;5313;48.834;9.228;2022-12-17T14:41:17;50.22;;;24.10;;
10529;SDS011;5313;48.834;9.228;2022-12-17T14:44:02;50.60;;;23.73;;
10529;SDS011;5313;48.834;9.228;2022-12-17T14:46:28;49.30;;;25.33;;
10529;SDS011;5313;48.834;9.228;2022-12-17T14:48:56;55.58;;;25.88;;
10529;SDS011;5313;48.834;9.228;2022-12-17T14:51:35;50.30;;;25.38;;
10529;SDS011;5313;48.834;9.228;2022-12-17T14:56:38;49.38;;;24.55;;
10529;SDS011;5313;48.834;9.228;2022-12-17T14:59:04;55.65;;;27.13;;
10529;SDS011;5313;48.834;9.228;2022-12-17T15:01:44;51.30;;;24.73;;
10529;SDS011;5313;48.834;9.228;2022-12-17T15:04:10;48.53;;;23.73;;
10529;SDS011;5313;48.834;9.228;2022-12-17T15:06:36;56.23;;;25.87;;
10529;SDS011;5313;48.834;9.228;2022-12-17T15:09:01;51.67;;;25.30;;
10529;SDS011;5313;48.834;9.228;2022-12-17T15:11:28;49.38;;;24.42;;
10529;SDS011;5313;48.834;9.228;2022-12-17T15:13:54;58.33;;;28.07;;
10529;SDS011;5313;48.834;9.228;2022-12-17T15:16:20;52.20;;;26.33;;
10529;SDS011;5313;48.834;9.228;2022-12-17T15:18:45;60.43;;;28.17;;
10529;SDS011;5313;48.834;9.228;2022-12-17T15:21:11;55.67;;;26.50;;
10529;SDS011;5313;48.834;9.228;2022-12-17T15:23:38;52.67;;;27.75;;
10529;SDS011;5313;48.834;9.228;2022-12-17T15:26:08;56.80;;;24.35;;
10529;SDS011;5313;48.834;9.228;2022-12-17T15:28:33;55.00;;;27.00;;
10529;SDS011;5313;48.834;9.228;2022-12-17T15:30:59;57.93;;;26.30;;
10529;SDS011;5313;48.834;9.228;2022-12-17T15:33:25;59.70;;;25.20;;
10529;SDS011;5313;48.834;9.228;2022-12-17T15:35:50;55.97;;;25.80;;
10529;SDS011;5313;48.834;9.228;2022-12-17T15:38:16;53.90;;;25.07;;
10529;SDS011;5313;48.834;9.228;2022-12-17T15:40:41;52.13;;;24.27;;
10529;SDS011;5313;48.834;9.228;2022-12-17T15:43:08;60.13;;;25.00;;
10529;SDS011;5313;48.834;9.228;2022-12-17T15:45:35;52.45;;;25.02;;
10529;SDS011;5313;48.834;9.228;2022-12-17T15:48:05;51.60;;;24.40;;
10529;SDS011;5313;48.834;9.228;2022-12-17T15:50:31;67.20;;;28.70;;
10529;SDS011;5313;48.834;9.228;2022-12-17T15:52:57;59.10;;;28.03;;
10529;SDS011;5313;48.834;9.228;2022-12-17T15:55:23;50.88;;;26.05;;
10529;SDS011;5313;48.834;9.228;2022-12-17T15:57:48;60.00;;;26.03;;
10529;SDS011;5313;48.834;9.228;2022-12-17T16:00:14;61.47;;;27.97;;
10529;SDS011;5313;48.834;9.228;2022-12-17T16:02:40;58.60;;;27.15;;
10529;SDS011;5313;48.834;9.228;2022-12-17T16:05:05;53.60;;;25.00;;
10529;SDS011;5313;48.834;9.228;2022-12-17T16:07:31;61.67;;;27.85;;
10529;SDS011;5313;48.834;9.228;2022-12-17T16:09:57;54.40;;;26.77;;
10529;SDS011;5313;48.834;9.228;2022-12-17T16:12:23;59.93;;;24.43;;
10529;SDS011;5313;48.834;9.228;2022-12-17T16:14:48;55.67;;;25.33;;
10529;SDS011;5313;48.834;9.228;2022-12-17T16:17:14;58.83;;;26.00;;
10529;SDS011;5313;48.834;9.228;2022-12-17T16:19:39;56.93;;;25.37;;
10529;SDS011;5313;48.834;9.228;2022-12-17T16:22:05;55.90;;;26.37;;
10529;SDS011;5313;48.834;9.228;2022-12-17T16:24:30;60.63;;;25.93;;
10529;SDS011;5313;48.834;9.228;2022-12-17T16:26:56;58.57;;;25.73;;
10529;SDS011;5313;48.834;9.228;2022-12-17T16:29:22;60.40;;;26.93;;
10529;SDS011;5313;48.834;9.228;2022-12-17T16:31:48;59.20;;;26.63;;
10529;SDS011;5313;48.834;9.228;2022-12-17T16:34:14;56.03;;;25.40;;
10529;SDS011;5313;48.834;9.228;2022-12-17T16:36:40;50.30;;;23.17;;
10529;SDS011;5313;48.834;9.228;2022-12-17T16:39:05;53.92;;;24.48;;
10529;SDS011;5313;48.834;9.228;2022-12-17T16:41:31;55.93;;;26.90;;
10529;SDS011;5313;48.834;9.228;2022-12-17T16:43:57;64.13;;;26.40;;
10529;SDS011;5313;48.834;9.228;2022-12-17T16:46:30;62.20;;;25.87;;
10529;SDS011;5313;48.834;9.228;2022-12-17T16:48:58;60.60;;;25.95;;
10529;SDS011;5313;48.834;9.228;2022-12-17T16:51:28;62.38;;;26.88;;
10529;SDS011;5313;48.834;9.228;2022-12-17T16:53:54;62.80;;;26.60;;
10529;SDS011;5313;48.834;9.228;2022-12-17T16:56:21;64.15;;;28.02;;
10529;SDS011;5313;48.834;9.228;2022-12-17T16:58:48;60.42;;;27.45;;
10529;SDS011;5313;48.834;9.228;2022-12-17T17:01:18;63.73;;;29.67;;
10529;SDS011;5313;48.834;9.228;2022-12-17T17:03:48;56.38;;;25.17;;
10529;SDS011;5313;48.834;9.228;2022-12-17T17:06:14;59.10;;;26.10;;
10529;SDS011;5313;48.834;9.228;2022-12-17T17:08:41;63.25;;;26.98;;
10529;SDS011;5313;48.834;9.228;2022-12-17T17:11:09;63.45;;;26.52;;
10529;SDS011;5313;48.834;9.228;2022-12-17T17:13:37;60.15;;;28.40;;
10529;SDS011;5313;48.834;9.228;2022-12-17T17:16:04;63.42;;;27.40;;